createdAt,value
2017-12-01T00:00:04.874Z,4.2
2017-12-01T00:15:04.942Z,4.2
2017-12-01T00:30:12.282Z,4.2
2017-12-01T00:45:04.511Z,4.4
2017-12-01T01:00:05.640Z,4.3
2017-12-01T01:15:05.296Z,4.1
2017-12-01T01:30:05.402Z,3.8
2017-12-01T01:45:04.670Z,3.3
2017-12-01T02:00:04.784Z,2.8
2017-12-01T02:15:05.267Z,2.8
2017-12-01T02:30:04.867Z,3.1
2017-12-01T02:45:05.400Z,3.5
2017-12-01T03:00:05.794Z,3.6
2017-12-01T03:15:04.725Z,3.4
2017-12-01T03:30:04.409Z,3.3
2017-12-01T03:45:04.711Z,3.5
2017-12-01T04:00:04.593Z,3.5
2017-12-01T04:15:04.485Z,3.6
2017-12-01T04:30:05.244Z,3.6
2017-12-01T04:45:08.270Z,3.6
2017-12-01T05:00:04.619Z,3.4
2017-12-01T05:15:06.053Z,3.4
2017-12-01T05:30:12.140Z,3.2
2017-12-01T05:45:06.289Z,3
2017-12-01T06:00:04.594Z,3.2
2017-12-01T06:15:07.722Z,3.1
2017-12-01T06:30:07.899Z,3.2
2017-12-01T06:45:10.420Z,3.2
2017-12-01T07:00:04.295Z,3.2
2017-12-01T07:15:04.740Z,3.3
2017-12-01T07:30:05.895Z,3.3
2017-12-01T07:45:04.786Z,3.4
2017-12-01T08:00:04.256Z,3.5
2017-12-01T08:15:04.720Z,3.8
2017-12-01T08:30:04.389Z,4
2017-12-01T08:45:04.759Z,4.2
2017-12-01T09:00:04.239Z,4.3
2017-12-01T09:15:04.181Z,4.7
2017-12-01T09:30:04.271Z,5
2017-12-01T09:45:04.857Z,5.4
2017-12-01T10:00:04.776Z,5.6
2017-12-01T10:15:05.150Z,5.7
2017-12-01T10:30:04.842Z,6.5
2017-12-01T10:45:04.162Z,6.1
2017-12-01T11:00:05.550Z,6.3
2017-12-01T11:15:07.536Z,5.7
2017-12-01T11:30:08.288Z,5.1
2017-12-01T11:45:06.223Z,5.3
2017-12-01T12:00:05.143Z,5.6
2017-12-01T12:15:05.095Z,6.6
2017-12-01T12:30:04.276Z,6
2017-12-01T12:45:06.217Z,6.3
2017-12-01T13:00:05.186Z,6.1
2017-12-01T13:15:05.633Z,5.5
2017-12-01T13:30:04.206Z,5.2
2017-12-01T13:45:04.586Z,5.7
2017-12-01T14:00:04.452Z,5.9
2017-12-01T14:15:04.931Z,5.6
2017-12-01T14:30:05.088Z,5.7
2017-12-01T14:45:05.043Z,5.5
2017-12-01T15:00:04.575Z,5
2017-12-01T15:15:05.531Z,4.8
2017-12-01T15:30:12.368Z,4.8
2017-12-01T15:45:04.698Z,4.8
2017-12-01T16:00:04.611Z,4.6
2017-12-01T16:15:04.833Z,4.6
2017-12-01T16:30:04.955Z,4.6
2017-12-01T16:45:04.827Z,4.4
2017-12-01T17:00:04.239Z,4.4
2017-12-01T17:15:05.749Z,4.4
2017-12-01T17:30:04.976Z,4.4
2017-12-01T17:45:05.220Z,4.4
2017-12-01T18:00:05.257Z,4.4
2017-12-01T18:15:04.759Z,4.3
2017-12-01T18:30:06.868Z,4.3
2017-12-01T18:45:37.198Z,4.3
2017-12-01T19:00:08.327Z,4.3
2017-12-01T19:15:07.351Z,4.3
2017-12-01T19:30:05.501Z,4.3
2017-12-01T19:45:04.659Z,4.2
2017-12-01T20:00:04.919Z,4.4
2017-12-01T20:15:04.328Z,4.3
2017-12-01T20:30:04.847Z,4.3
2017-12-01T20:45:04.512Z,4.2
2017-12-01T21:00:04.889Z,4.3
2017-12-01T21:15:04.662Z,4.3
2017-12-01T21:30:04.846Z,4.4
2017-12-01T21:45:04.578Z,4.4
2017-12-01T22:00:05.707Z,4.4
2017-12-01T22:15:07.738Z,4.2
2017-12-01T22:30:05.600Z,4.3
2017-12-01T22:45:05.351Z,4.2
2017-12-01T23:00:08.475Z,4.1
2017-12-01T23:15:04.824Z,4.1
2017-12-01T23:30:07.721Z,4.1
2017-12-01T23:45:06.347Z,4.2
